Time;durP1;ratioP1;P1;durP2;ratioP2;P2;SDS_P1;SDS_P2;PMS_P1;PMS_P2;Temp;Humidity;BMP_temperature;BMP_pressure;BME280_temperature;BME280_humidity;BME280_pressure;Samples;Min_cycle;Max_cycle;Signal;HPM_P1;HPM_P2
2024/01/01 00:00:32;;;;;;;17.42;6.03;;;6.90;99.90;;;;;;4367793;32;20191;-73
2024/01/01 00:02:57;;;;;;;12.52;5.75;;;6.90;99.90;;;;;;4368130;32;20070;-69
2024/01/01 00:05:23;;;;;;;17.42;7.60;;;6.90;99.90;;;;;;4369772;32;20078;-72
2024/01/01 00:07:51;;;;;;;23.98;8.15;;;6.90;99.90;;;;;;4372140;32;20082;-73
2024/01/01 00:10:18;;;;;;;14.38;7.12;;;6.90;99.90;;;;;;4369937;32;20066;-71
2024/01/01 00:12:43;;;;;;;17.20;5.57;;;6.90;99.90;;;;;;4368594;32;20540;-70
2024/01/01 00:15:09;;;;;;;15.82;7.90;;;6.90;99.90;;;;;;4372206;32;20114;-70
2024/01/01 00:17:34;;;;;;;7.25;4.45;;;6.80;99.90;;;;;;4370923;32;20078;-72
2024/01/01 00:20:00;;;;;;;8.82;6.28;;;6.80;99.90;;;;;;4370385;32;20090;-73
2024/01/01 00:22:25;;;;;;;25.98;6.72;;;6.70;99.90;;;;;;4368855;32;20080;-72
2024/01/01 00:24:51;;;;;;;23.10;5.93;;;6.80;99.90;;;;;;4371417;32;20086;-72
2024/01/01 00:27:16;;;;;;;7.18;4.25;;;6.80;99.90;;;;;;4369432;32;20080;-70
2024/01/01 00:29:42;;;;;;;8.43;3.50;;;6.80;99.90;;;;;;4370922;32;20392;-72
2024/01/01 00:32:07;;;;;;;5.10;3.97;;;6.80;99.90;;;;;;4376516;32;20129;-71
2024/01/01 00:34:33;;;;;;;2.83;2.25;;;6.80;99.90;;;;;;4374437;32;20542;-71
2024/01/01 00:36:58;;;;;;;8.10;2.87;;;6.70;99.90;;;;;;4374880;32;20105;-70
2024/01/01 00:39:24;;;;;;;3.25;2.30;;;6.70;99.90;;;;;;4372334;32;20078;-72
2024/01/01 00:41:49;;;;;;;1.95;1.83;;;6.70;99.90;;;;;;4375757;32;20082;-71
2024/01/01 00:44:15;;;;;;;1.50;1.25;;;6.70;99.90;;;;;;4374555;32;20079;-72
2024/01/01 00:46:40;;;;;;;1.62;1.52;;;6.70;99.90;;;;;;4374387;32;20103;-71
2024/01/01 00:49:06;;;;;;;1.10;1.10;;;6.80;99.90;;;;;;4374325;32;20475;-71
2024/01/01 00:51:31;;;;;;;1.70;0.90;;;6.80;99.90;;;;;;4374294;32;20142;-71
2024/01/01 00:53:57;;;;;;;1.95;1.75;;;6.80;99.90;;;;;;4372007;32;20078;-70
2024/01/01 00:56:22;;;;;;;1.58;1.35;;;6.80;99.90;;;;;;4373990;32;20166;-71
2024/01/01 00:58:48;;;;;;;2.15;1.95;;;6.80;99.90;;;;;;4375323;32;20074;-70
2024/01/01 01:01:13;;;;;;;1.90;1.77;;;6.70;99.90;;;;;;4375808;32;20416;-72
2024/01/01 01:03:38;;;;;;;6.47;2.60;;;6.70;99.90;;;;;;4374246;32;20087;-71
2024/01/01 01:06:05;;;;;;;5.68;2.97;;;6.60;99.90;;;;;;4376273;32;20128;-70
2024/01/01 01:08:30;;;;;;;3.12;2.62;;;6.50;99.90;;;;;;4375639;32;20094;-73
2024/01/01 01:10:56;;;;;;;2.67;1.30;;;6.50;99.90;;;;;;4373994;32;20128;-73
2024/01/01 01:13:21;;;;;;;1.40;1.15;;;6.50;99.90;;;;;;4373768;32;20372;-72
2024/01/01 01:15:49;;;;;;;1.92;1.48;;;6.50;99.90;;;;;;4374041;32;20141;-72
2024/01/01 01:18:14;;;;;;;2.22;1.23;;;6.60;99.90;;;;;;4374912;32;20166;-73
2024/01/01 01:20:40;;;;;;;2.70;1.52;;;6.70;99.90;;;;;;4371028;32;20134;-72
2024/01/01 01:23:05;;;;;;;2.03;1.52;;;6.80;99.90;;;;;;4375781;32;20440;-73
2024/01/01 01:25:31;;;;;;;3.50;1.77;;;6.70;99.90;;;;;;4371340;32;20608;-73
2024/01/01 01:27:57;;;;;;;1.52;1.42;;;6.80;99.90;;;;;;4374124;32;20090;-73
2024/01/01 01:30:23;;;;;;;1.12;1.02;;;6.80;99.90;;;;;;4372218;32;20082;-73
2024/01/01 01:32:48;;;;;;;9.15;2.60;;;6.80;99.90;;;;;;4372656;32;20074;-73
2024/01/01 01:35:14;;;;;;;3.55;2.47;;;6.80;99.90;;;;;;4375421;32;20067;-73
2024/01/01 01:37:39;;;;;;;3.90;2.40;;;6.80;99.90;;;;;;4374173;32;20099;-72
2024/01/01 01:40:05;;;;;;;4.68;1.65;;;6.70;99.90;;;;;;4374054;32;20087;-73
2024/01/01 01:42:31;;;;;;;1.25;1.15;;;6.60;99.90;;;;;;4374495;32;20471;-72
2024/01/01 01:44:56;;;;;;;4.10;1.02;;;6.60;99.90;;;;;;4375330;32;20059;-73
2024/01/01 01:47:23;;;;;;;1.35;1.25;;;6.60;99.90;;;;;;4368725;32;20070;-72
2024/01/01 01:49:50;;;;;;;1.40;1.20;;;6.70;99.90;;;;;;4376006;32;20125;-72
2024/01/01 01:52:16;;;;;;;6.75;2.58;;;6.70;99.90;;;;;;4371947;32;20090;-72
2024/01/01 01:54:45;;;;;;;14.77;3.12;;;6.70;99.90;;;;;;4374199;32;20531;-72
2024/01/01 01:57:11;;;;;;;1.10;1.10;;;6.60;99.90;;;;;;4374037;32;20066;-72
2024/01/01 01:59:37;;;;;;;6.65;2.08;;;6.70;99.90;;;;;;4374895;32;20070;-73
2024/01/01 02:02:03;;;;;;;1.62;1.35;;;6.60;99.90;;;;;;4373382;32;20070;-73
2024/01/01 02:04:28;;;;;;;0.90;0.62;;;6.60;99.90;;;;;;4376637;32;20079;-73
2024/01/01 02:06:54;;;;;;;1.55;1.45;;;6.60;99.90;;;;;;4374612;32;20079;-73
2024/01/01 02:09:19;;;;;;;3.17;1.05;;;6.60;99.90;;;;;;4373222;32;20086;-72
2024/01/01 02:11:45;;;;;;;3.15;2.25;;;6.60;99.90;;;;;;4373569;32;20090;-73
2024/01/01 02:14:12;;;;;;;2.90;1.50;;;6.60;99.90;;;;;;4374189;32;21608;-73
2024/01/01 02:16:38;;;;;;;5.47;2.80;;;6.50;99.90;;;;;;4373839;32;20082;-72
2024/01/01 02:19:16;;;;;;;2.40;1.42;;;6.50;99.90;;;;;;4373771;32;20078;-73
2024/01/01 02:21:41;;;;;;;1.33;1.00;;;6.40;99.90;;;;;;4371215;32;20190;-73
2024/01/01 02:24:08;;;;;;;2.62;1.92;;;6.40;99.90;;;;;;4374227;32;20134;-73
2024/01/01 02:26:34;;;;;;;2.20;1.42;;;6.40;99.90;;;;;;4373025;32;20070;-73
2024/01/01 02:28:59;;;;;;;1.35;1.20;;;6.40;99.90;;;;;;4370801;32;20075;-73
2024/01/01 02:31:24;;;;;;;0.98;0.98;;;6.50;99.90;;;;;;4357054;32;20064;-73
2024/01/01 02:33:50;;;;;;;1.05;0.98;;;6.50;99.90;;;;;;4356100;32;20090;-73
2024/01/01 02:36:15;;;;;;;1.67;1.58;;;6.50;99.90;;;;;;4358750;32;20081;-73
2024/01/01 02:38:41;;;;;;;1.50;1.40;;;6.50;99.90;;;;;;4355209;32;20087;-73
2024/01/01 02:41:06;;;;;;;1.02;0.93;;;6.50;99.90;;;;;;4359365;32;20079;-73
2024/01/01 02:43:32;;;;;;;1.58;1.27;;;6.50;99.90;;;;;;4357177;32;20070;-73
2024/01/01 02:45:57;;;;;;;4.15;1.25;;;6.40;99.90;;;;;;4357475;32;20070;-73
2024/01/01 02:48:23;;;;;;;1.73;1.37;;;6.40;99.90;;;;;;4357659;32;20138;-73
2024/01/01 02:50:48;;;;;;;1.33;1.23;;;6.40;99.90;;;;;;4357945;32;20083;-73
2024/01/01 02:53:14;;;;;;;0.43;0.43;;;6.40;99.90;;;;;;4354908;32;20103;-73
2024/01/01 02:55:39;;;;;;;0.62;0.62;;;6.40;99.90;;;;;;4358011;32;20083;-73
2024/01/01 02:58:05;;;;;;;0.43;0.43;;;6.30;99.90;;;;;;4354603;32;20518;-73
2024/01/01 03:00:30;;;;;;;1.55;1.45;;;6.30;99.90;;;;;;4357781;32;20424;-73
2024/01/01 03:02:56;;;;;;;0.73;0.73;;;6.30;99.90;;;;;;4355602;32;20082;-73
2024/01/01 03:05:25;;;;;;;0.40;0.40;;;6.30;99.90;;;;;;4355680;32;20079;-73
2024/01/01 03:07:51;;;;;;;1.50;1.00;;;6.30;99.90;;;;;;4353637;32;20075;-73
2024/01/01 03:10:16;;;;;;;2.95;1.65;;;6.30;99.90;;;;;;4358908;32;20075;-73
2024/01/01 03:12:43;;;;;;;0.82;0.82;;;6.30;99.90;;;;;;4357080;32;20087;-73
2024/01/01 03:15:09;;;;;;;0.37;0.37;;;6.20;99.90;;;;;;4358803;32;20070;-73
2024/01/01 03:17:34;;;;;;;1.33;0.80;;;6.20;99.90;;;;;;4353721;32;20091;-73
2024/01/01 03:20:00;;;;;;;0.80;0.80;;;6.20;99.90;;;;;;4355276;32;20076;-74
2024/01/01 03:22:26;;;;;;;0.65;0.65;;;6.30;99.90;;;;;;4357101;32;20067;-73
2024/01/01 03:24:51;;;;;;;1.15;1.00;;;6.20;99.90;;;;;;4356055;32;20078;-72
2024/01/01 03:27:17;;;;;;;0.75;0.75;;;6.20;99.90;;;;;;4356676;32;20456;-70
2024/01/01 03:29:43;;;;;;;1.35;0.70;;;6.30;99.90;;;;;;4367635;32;20091;-71
2024/01/01 03:32:08;;;;;;;0.77;0.75;;;6.30;99.90;;;;;;4380661;32;20562;-70
2024/01/01 03:34:34;;;;;;;1.00;0.98;;;6.40;99.90;;;;;;4378789;32;20070;-71
2024/01/01 03:37:00;;;;;;;1.27;0.70;;;6.40;99.90;;;;;;4379486;32;20074;-71
2024/01/01 03:39:25;;;;;;;0.70;0.70;;;6.40;99.90;;;;;;4382469;32;20074;-71
2024/01/01 03:41:51;;;;;;;0.60;0.60;;;6.40;99.90;;;;;;4380416;32;20074;-70
2024/01/01 03:44:16;;;;;;;1.27;0.68;;;6.40;99.90;;;;;;4378621;32;20127;-71
2024/01/01 03:46:42;;;;;;;1.37;1.27;;;6.40;99.90;;;;;;4380543;32;20063;-72
2024/01/01 03:49:07;;;;;;;0.57;0.57;;;6.40;99.90;;;;;;4378524;32;20180;-73
2024/01/01 03:51:33;;;;;;;13.65;3.22;;;6.40;99.90;;;;;;4380183;32;20086;-71
2024/01/01 03:53:58;;;;;;;0.95;0.70;;;6.30;99.90;;;;;;4380240;32;20104;-70
2024/01/01 03:56:24;;;;;;;1.20;0.95;;;6.30;99.90;;;;;;4380908;32;20608;-71
2024/01/01 03:58:49;;;;;;;1.45;1.23;;;6.30;99.90;;;;;;4378108;32;20209;-71
2024/01/01 04:01:15;;;;;;;11.12;2.08;;;6.20;99.90;;;;;;4380374;32;20070;-70
2024/01/01 04:03:40;;;;;;;1.10;0.80;;;6.00;99.90;;;;;;4380827;32;20078;-72
2024/01/01 04:06:07;;;;;;;0.52;0.52;;;6.10;99.90;;;;;;4378049;32;20066;-71
2024/01/01 04:08:33;;;;;;;1.27;1.17;;;6.10;99.90;;;;;;4380293;32;20498;-71
2024/01/01 04:10:58;;;;;;;0.73;0.73;;;6.10;99.90;;;;;;4380058;32;20127;-70
2024/01/01 04:13:24;;;;;;;0.60;0.60;;;6.10;99.90;;;;;;4377504;32;20082;-70
2024/01/01 04:15:50;;;;;;;3.33;1.17;;;6.20;99.90;;;;;;4378923;32;21158;-70
2024/01/01 04:18:15;;;;;;;0.90;0.90;;;6.20;99.90;;;;;;4378375;32;20070;-70
2024/01/01 04:20:41;;;;;;;1.83;1.50;;;6.20;99.90;;;;;;4376288;32;20069;-70
2024/01/01 04:23:06;;;;;;;1.65;0.85;;;6.20;99.90;;;;;;4380246;32;20077;-71
2024/01/01 04:25:32;;;;;;;1.95;1.05;;;6.20;99.90;;;;;;4380838;32;20087;-71
2024/01/01 04:27:57;;;;;;;0.82;0.82;;;6.20;99.90;;;;;;4382886;32;20090;-72
2024/01/01 04:30:23;;;;;;;1.65;1.27;;;6.20;99.90;;;;;;4379086;32;20075;-71
2024/01/01 04:32:48;;;;;;;1.87;1.12;;;6.30;99.90;;;;;;4381043;32;20095;-71
2024/01/01 04:35:14;;;;;;;0.82;0.82;;;6.30;99.90;;;;;;4381069;32;20082;-70
2024/01/01 04:37:39;;;;;;;1.45;1.35;;;6.30;99.90;;;;;;4378524;32;20089;-71
2024/01/01 04:40:06;;;;;;;0.62;0.62;;;6.30;99.90;;;;;;4375982;32;20571;-72
2024/01/01 04:42:31;;;;;;;1.45;1.27;;;6.30;99.90;;;;;;4375311;32;20070;-72
2024/01/01 04:44:56;;;;;;;2.17;1.80;;;6.20;99.90;;;;;;4377689;32;20123;-72
2024/01/01 04:47:22;;;;;;;1.42;1.10;;;6.30;99.90;;;;;;4374653;32;20110;-71
2024/01/01 04:49:48;;;;;;;1.37;1.27;;;6.30;99.90;;;;;;4373115;32;20082;-71
2024/01/01 04:52:13;;;;;;;1.45;1.15;;;6.30;99.90;;;;;;4372447;32;20416;-71
2024/01/01 04:54:39;;;;;;;0.80;0.80;;;6.20;99.90;;;;;;4372722;32;20139;-72
2024/01/01 04:57:04;;;;;;;1.08;0.50;;;6.30;99.90;;;;;;4373446;32;20078;-72
2024/01/01 04:59:30;;;;;;;1.60;1.42;;;6.30;99.90;;;;;;4372244;32;20059;-73
2024/01/01 05:01:55;;;;;;;0.65;0.65;;;6.30;99.90;;;;;;4370675;32;20077;-72
2024/01/01 05:04:22;;;;;;;3.00;1.05;;;6.30;99.90;;;;;;4372982;32;20467;-71
2024/01/01 05:06:47;;;;;;;1.40;0.90;;;6.30;99.90;;;;;;4375646;32;20150;-72
2024/01/01 05:09:12;;;;;;;0.88;0.88;;;6.40;99.90;;;;;;4376704;32;20117;-71
2024/01/01 05:11:40;;;;;;;0.60;0.60;;;6.40;99.90;;;;;;4372173;32;20083;-71
2024/01/01 05:14:05;;;;;;;2.20;1.33;;;6.40;99.90;;;;;;4371347;32;20089;-72
2024/01/01 05:16:33;;;;;;;0.77;0.77;;;6.50;99.90;;;;;;4371724;32;20483;-72
2024/01/01 05:18:58;;;;;;;4.15;1.17;;;6.50;99.90;;;;;;4376621;32;20070;-71
2024/01/01 05:21:24;;;;;;;0.57;0.57;;;6.50;99.90;;;;;;4374099;32;20082;-72
2024/01/01 05:23:49;;;;;;;0.60;0.57;;;6.50;99.90;;;;;;4374329;32;20112;-71
2024/01/01 05:26:15;;;;;;;4.55;1.58;;;6.40;99.90;;;;;;4376459;32;20090;-72
2024/01/01 05:28:40;;;;;;;2.78;1.10;;;6.40;99.90;;;;;;4374869;32;20078;-70
2024/01/01 05:31:06;;;;;;;0.65;0.65;;;6.40;99.90;;;;;;4374281;32;20129;-71
2024/01/01 05:33:31;;;;;;;0.43;0.43;;;6.40;99.90;;;;;;4372112;32;20086;-71
2024/01/01 05:35:57;;;;;;;1.05;1.05;;;6.40;99.90;;;;;;4374778;32;20090;-72
2024/01/01 05:38:22;;;;;;;3.47;1.65;;;6.50;99.90;;;;;;4371104;32;20071;-71
2024/01/01 05:40:48;;;;;;;0.62;0.62;;;6.50;99.90;;;;;;4374261;32;20086;-71
2024/01/01 05:43:14;;;;;;;3.05;1.02;;;6.50;99.90;;;;;;4370737;32;20070;-72
2024/01/01 05:45:39;;;;;;;1.12;0.90;;;6.50;99.90;;;;;;4373291;32;20070;-71
2024/01/01 05:48:05;;;;;;;4.97;1.73;;;6.40;99.90;;;;;;4374625;32;20127;-71
2024/01/01 05:50:31;;;;;;;1.33;1.23;;;6.40;99.90;;;;;;4372870;32;20086;-72
2024/01/01 05:52:58;;;;;;;3.75;1.35;;;6.40;99.90;;;;;;4375101;32;20065;-71
2024/01/01 05:55:23;;;;;;;1.85;0.93;;;6.40;99.90;;;;;;4375608;32;20154;-71
2024/01/01 05:57:49;;;;;;;0.47;0.47;;;6.40;99.90;;;;;;4373085;32;20074;-71
2024/01/01 06:00:14;;;;;;;2.15;0.68;;;6.40;99.90;;;;;;4369936;32;20095;-71
2024/01/01 06:02:40;;;;;;;1.00;0.88;;;6.40;99.90;;;;;;4370984;32;20070;-72
2024/01/01 06:05:06;;;;;;;3.78;0.95;;;6.40;99.90;;;;;;4371002;32;20083;-72
2024/01/01 06:07:31;;;;;;;0.75;0.75;;;6.40;99.90;;;;;;4369651;32;20075;-71
2024/01/01 06:09:57;;;;;;;2.10;0.90;;;6.50;99.90;;;;;;4372646;32;20066;-71
2024/01/01 06:12:23;;;;;;;3.25;1.05;;;6.50;99.90;;;;;;4370789;32;20083;-71
2024/01/01 06:14:50;;;;;;;1.77;1.15;;;6.60;99.90;;;;;;4373334;32;20078;-71
2024/01/01 06:17:15;;;;;;;1.17;1.08;;;6.50;99.90;;;;;;4371490;32;20515;-71
2024/01/01 06:19:41;;;;;;;0.40;0.40;;;6.50;99.90;;;;;;4370852;32;20142;-70
2024/01/01 06:22:07;;;;;;;0.70;0.70;;;6.50;99.90;;;;;;4373660;32;20506;-70
2024/01/01 06:24:32;;;;;;;0.75;0.75;;;6.50;99.90;;;;;;4372874;32;20079;-71
2024/01/01 06:26:58;;;;;;;0.52;0.52;;;6.50;99.90;;;;;;4371658;32;20083;-71
2024/01/01 06:29:26;;;;;;;0.30;0.30;;;6.50;99.90;;;;;;4372391;32;20086;-71
2024/01/01 06:31:52;;;;;;;25.45;1.45;;;6.60;99.90;;;;;;4378489;32;20075;-72
2024/01/01 06:34:19;;;;;;;0.50;0.50;;;6.60;99.90;;;;;;4377305;32;20535;-69
2024/01/01 06:36:45;;;;;;;0.60;0.60;;;6.70;99.90;;;;;;4378030;32;20138;-71
2024/01/01 06:39:10;;;;;;;0.50;0.50;;;6.70;99.90;;;;;;4375101;32;20082;-72
2024/01/01 06:41:36;;;;;;;5.97;1.12;;;6.70;99.90;;;;;;4371071;32;20075;-73
2024/01/01 06:44:01;;;;;;;0.85;0.85;;;6.70;99.90;;;;;;4372384;32;20071;-72
2024/01/01 06:46:27;;;;;;;0.70;0.70;;;6.70;99.90;;;;;;4372856;32;20545;-72
2024/01/01 06:48:52;;;;;;;0.40;0.40;;;6.70;99.90;;;;;;4370502;32;20297;-72
2024/01/01 06:51:18;;;;;;;0.52;0.52;;;6.70;99.90;;;;;;4373672;32;20070;-72
2024/01/01 06:53:43;;;;;;;0.75;0.75;;;6.70;99.90;;;;;;4371836;32;20579;-73
2024/01/01 06:56:09;;;;;;;0.60;0.60;;;6.70;99.90;;;;;;4374165;32;20074;-72
2024/01/01 06:58:34;;;;;;;0.32;0.32;;;6.80;99.90;;;;;;4374123;32;20069;-74
2024/01/01 07:01:00;;;;;;;0.70;0.70;;;6.80;99.90;;;;;;4370776;32;20534;-72
2024/01/01 07:03:25;;;;;;;0.40;0.40;;;6.80;99.90;;;;;;4373707;32;20070;-72
2024/01/01 07:05:50;;;;;;;0.40;0.40;;;6.80;99.90;;;;;;4372419;32;20087;-72
2024/01/01 07:08:16;;;;;;;0.62;0.62;;;6.80;99.90;;;;;;4377848;32;20083;-73
2024/01/01 07:10:41;;;;;;;2.08;0.82;;;6.80;99.90;;;;;;4376522;32;20443;-73
2024/01/01 07:13:07;;;;;;;0.60;0.60;;;6.80;99.90;;;;;;4375437;32;20063;-73
2024/01/01 07:15:32;;;;;;;0.70;0.70;;;6.80;99.90;;;;;;4375150;32;20199;-73
2024/01/01 07:17:59;;;;;;;0.85;0.85;;;6.80;99.90;;;;;;4377226;32;20083;-72
2024/01/01 07:20:25;;;;;;;1.40;0.68;;;6.80;99.90;;;;;;4374807;32;20059;-73
2024/01/01 07:22:50;;;;;;;0.40;0.40;;;6.80;99.90;;;;;;4375767;32;20111;-74
2024/01/01 07:25:16;;;;;;;5.28;0.50;;;6.80;99.90;;;;;;4377219;32;20092;-73
2024/01/01 07:27:42;;;;;;;0.50;0.50;;;6.80;99.90;;;;;;4375024;32;20119;-73
2024/01/01 07:30:08;;;;;;;1.02;1.02;;;6.70;99.90;;;;;;4374328;32;20093;-73
2024/01/01 07:32:34;;;;;;;14.25;1.73;;;6.80;99.90;;;;;;4374099;32;20095;-74
2024/01/01 07:34:59;;;;;;;0.30;0.30;;;6.80;99.90;;;;;;4373751;32;20094;-73
2024/01/01 07:37:25;;;;;;;0.40;0.40;;;6.80;99.90;;;;;;4375832;32;20075;-73
2024/01/01 07:39:50;;;;;;;1.85;1.50;;;6.70;99.90;;;;;;4373918;32;20082;-73
2024/01/01 07:42:17;;;;;;;0.60;0.60;;;6.70;99.90;;;;;;4376058;32;20460;-74
2024/01/01 07:44:43;;;;;;;1.27;0.50;;;6.70;99.90;;;;;;4376186;32;20125;-73
2024/01/01 07:47:09;;;;;;;0.30;0.30;;;6.80;99.90;;;;;;4377362;32;20078;-73
2024/01/01 07:49:35;;;;;;;0.40;0.40;;;6.80;99.90;;;;;;4376836;32;20593;-71
2024/01/01 07:52:01;;;;;;;0.55;0.55;;;6.70;99.90;;;;;;4380507;32;20320;-71
2024/01/01 07:54:27;;;;;;;1.62;1.12;;;6.70;99.90;;;;;;4379451;32;20129;-72
2024/01/01 07:56:53;;;;;;;4.62;1.05;;;6.70;99.90;;;;;;4378719;32;20130;-71
2024/01/01 07:59:18;;;;;;;0.40;0.40;;;6.80;99.90;;;;;;4376814;32;20086;-72
2024/01/01 08:01:44;;;;;;;0.30;0.30;;;6.80;99.90;;;;;;4378229;32;20075;-71
2024/01/01 08:04:09;;;;;;;0.65;0.65;;;6.80;99.90;;;;;;4380255;32;20091;-71
2024/01/01 08:06:35;;;;;;;0.40;0.40;;;6.80;99.90;;;;;;4377321;32;20070;-72
2024/01/01 08:09:01;;;;;;;0.82;0.80;;;6.90;99.90;;;;;;4378057;32;20483;-73
2024/01/01 08:11:26;;;;;;;0.45;0.45;;;7.00;99.90;;;;;;4374044;32;20063;-72
2024/01/01 08:13:52;;;;;;;0.82;0.82;;;7.00;99.90;;;;;;4375050;32;20082;-71
2024/01/01 08:16:19;;;;;;;1.35;0.75;;;7.10;99.90;;;;;;4376202;32;20090;-73
2024/01/01 08:18:47;;;;;;;0.50;0.50;;;7.10;99.90;;;;;;4372625;32;20070;-72
2024/01/01 08:21:13;;;;;;;0.30;0.30;;;7.10;99.90;;;;;;4373978;32;20511;-72
2024/01/01 08:23:38;;;;;;;3.58;1.10;;;7.10;99.90;;;;;;4375980;32;20083;-72
2024/01/01 08:26:04;;;;;;;0.30;0.30;;;7.10;99.90;;;;;;4375344;32;20071;-71
2024/01/01 08:28:32;;;;;;;0.40;0.40;;;7.10;99.90;;;;;;4374992;32;20117;-73
2024/01/01 08:30:58;;;;;;;0.40;0.40;;;7.20;99.90;;;;;;4373454;32;20503;-71
2024/01/01 08:33:23;;;;;;;0.37;0.37;;;7.20;99.90;;;;;;4373810;32;20082;-71
2024/01/01 08:35:53;;;;;;;0.30;0.30;;;7.20;99.90;;;;;;4373803;32;20071;-72
2024/01/01 08:38:19;;;;;;;0.50;0.50;;;7.20;99.90;;;;;;4375833;32;20070;-72
2024/01/01 08:40:44;;;;;;;0.40;0.40;;;7.20;99.90;;;;;;4373808;32;20079;-72
2024/01/01 08:43:10;;;;;;;0.55;0.47;;;7.30;99.90;;;;;;4373031;32;20440;-71
2024/01/01 08:45:36;;;;;;;0.30;0.30;;;7.30;99.90;;;;;;4375942;32;20318;-73
2024/01/01 08:48:02;;;;;;;0.60;0.60;;;7.30;99.90;;;;;;4373092;32;20083;-71
2024/01/01 08:50:28;;;;;;;0.40;0.40;;;7.30;99.90;;;;;;4372186;32;20070;-72
2024/01/01 08:52:53;;;;;;;0.55;0.55;;;7.40;99.90;;;;;;4372711;32;20107;-73
2024/01/01 08:55:18;;;;;;;0.50;0.50;;;7.40;99.90;;;;;;4375665;32;20066;-72
2024/01/01 08:57:44;;;;;;;0.60;0.60;;;7.50;99.90;;;;;;4372630;32;20550;-74
2024/01/01 09:02:35;;;;;;;0.75;0.70;;;7.60;99.90;;;;;;4371435;32;20534;-74
2024/01/01 09:05:00;;;;;;;2.10;1.05;;;7.60;99.90;;;;;;4373315;32;20522;-73
2024/01/01 09:07:26;;;;;;;0.37;0.37;;;7.70;99.90;;;;;;4371823;32;20069;-74
2024/01/01 09:09:51;;;;;;;0.90;0.30;;;7.60;99.90;;;;;;4376743;32;20078;-74
2024/01/01 09:12:17;;;;;;;0.50;0.50;;;7.60;99.90;;;;;;4378041;32;20071;-73
2024/01/01 09:14:42;;;;;;;7.78;1.95;;;7.60;99.90;;;;;;4386462;32;20121;-73
2024/01/01 09:17:08;;;;;;;0.30;0.30;;;7.60;99.90;;;;;;4374438;32;20065;-74
2024/01/01 09:19:34;;;;;;;0.32;0.32;;;7.60;99.90;;;;;;4373955;32;20080;-71
2024/01/01 09:22:00;;;;;;;0.75;0.75;;;7.60;99.90;;;;;;4375911;32;20776;-71
2024/01/01 09:24:26;;;;;;;0.30;0.30;;;7.60;99.90;;;;;;4376641;32;20118;-71
2024/01/01 09:26:51;;;;;;;0.30;0.30;;;7.60;99.90;;;;;;4379201;32;20079;-71
2024/01/01 09:29:17;;;;;;;0.35;0.35;;;7.60;99.90;;;;;;4377379;32;20542;-72
2024/01/01 09:31:42;;;;;;;0.65;0.45;;;7.60;99.90;;;;;;4378055;32;20086;-72
2024/01/01 09:34:08;;;;;;;0.55;0.55;;;7.60;99.90;;;;;;4376178;32;20071;-71
2024/01/01 09:36:34;;;;;;;0.40;0.40;;;7.60;99.90;;;;;;4376047;32;20125;-71
2024/01/01 09:39:00;;;;;;;4.18;1.15;;;7.60;99.90;;;;;;4376560;32;20086;-72
2024/01/01 09:41:26;;;;;;;0.40;0.40;;;7.70;99.90;;;;;;4375893;32;20090;-72
2024/01/01 09:43:54;;;;;;;0.70;0.70;;;7.60;99.90;;;;;;4381586;32;20071;-72
2024/01/01 09:46:20;;;;;;;0.37;0.37;;;7.70;99.90;;;;;;4376365;32;20082;-71
2024/01/01 09:48:46;;;;;;;3.17;1.08;;;7.70;99.90;;;;;;4378515;32;20610;-72
2024/01/01 09:51:11;;;;;;;0.30;0.30;;;7.70;99.90;;;;;;4376844;32;20086;-70
2024/01/01 09:53:37;;;;;;;0.30;0.30;;;7.60;99.90;;;;;;4376387;32;20110;-71
2024/01/01 09:56:03;;;;;;;0.62;0.62;;;7.70;99.90;;;;;;4375069;32;20073;-72
2024/01/01 09:58:39;;;;;;;0.30;0.30;;;7.60;99.90;;;;;;4376952;32;20067;-70
2024/01/01 10:01:10;;;;;;;3.30;0.82;;;7.70;99.90;;;;;;4379119;32;20145;-72
2024/01/01 10:03:35;;;;;;;0.82;0.55;;;7.70;99.90;;;;;;4379589;32;20564;-71
2024/01/01 10:06:10;;;;;;;0.50;0.50;;;7.70;99.90;;;;;;4376077;32;20210;-71
2024/01/01 10:08:36;;;;;;;0.35;0.35;;;7.80;99.90;;;;;;4375877;32;20522;-73
2024/01/01 10:11:20;;;;;;;0.55;0.55;;;7.80;99.90;;;;;;4374811;32;20118;-73
2024/01/01 10:13:46;;;;;;;0.37;0.37;;;7.90;99.90;;;;;;4372376;32;20102;-71
2024/01/01 10:16:28;;;;;;;0.30;0.30;;;7.90;99.90;;;;;;4372297;32;20083;-72
2024/01/01 10:18:56;;;;;;;0.50;0.50;;;7.90;99.90;;;;;;4375053;32;20090;-72
2024/01/01 10:21:30;;;;;;;0.50;0.50;;;7.90;99.90;;;;;;4373050;32;20510;-73
2024/01/01 10:23:57;;;;;;;0.80;0.80;;;7.90;99.90;;;;;;4371342;32;20479;-74
2024/01/01 10:26:22;;;;;;;0.32;0.32;;;7.90;99.90;;;;;;4374216;32;20114;-73
2024/01/01 10:28:48;;;;;;;0.30;0.30;;;7.80;99.90;;;;;;4372397;32;20141;-74
2024/01/01 10:31:15;;;;;;;1.10;0.98;;;7.80;99.90;;;;;;4375389;32;20076;-72
2024/01/01 10:33:42;;;;;;;0.47;0.47;;;7.80;99.90;;;;;;4374643;32;20142;-71
2024/01/01 10:36:08;;;;;;;0.30;0.30;;;7.80;99.90;;;;;;4374785;32;20063;-72
2024/01/01 10:38:35;;;;;;;0.40;0.40;;;7.80;99.90;;;;;;4374410;32;20082;-72
2024/01/01 10:41:02;;;;;;;0.30;0.30;;;7.80;99.90;;;;;;4375276;32;20530;-72
2024/01/01 10:43:28;;;;;;;0.50;0.50;;;7.80;99.90;;;;;;4375701;32;20378;-72
2024/01/01 10:46:12;;;;;;;0.57;0.45;;;7.90;99.90;;;;;;4373803;32;20078;-72
2024/01/01 10:48:40;;;;;;;0.30;0.30;;;7.90;99.90;;;;;;4375260;32;20089;-73
2024/01/01 10:51:31;;;;;;;2.45;0.82;;;7.90;99.90;;;;;;4376455;32;20203;-72
2024/01/01 10:54:05;;;;;;;;;;;7.90;99.90;;;;;;4364505;32;20561;-72
2024/01/01 10:56:42;;;;;;;0.37;0.37;;;7.90;99.90;;;;;;4382541;32;20421;-73
2024/01/01 10:59:19;;;;;;;20.02;0.73;;;7.90;99.90;;;;;;4372223;32;20111;-72
2024/01/01 11:01:47;;;;;;;0.30;0.30;;;7.90;99.90;;;;;;4374311;32;20385;-71
2024/01/01 11:04:14;;;;;;;0.43;0.43;;;8.00;99.90;;;;;;4375220;32;20059;-71
2024/01/01 11:06:43;;;;;;;0.50;0.50;;;8.00;99.90;;;;;;4372821;32;20534;-71
2024/01/01 11:09:27;;;;;;;0.30;0.30;;;8.00;99.90;;;;;;4373077;32;21101;-71
2024/01/01 11:11:54;;;;;;;0.32;0.32;;;7.90;99.90;;;;;;4372377;32;20488;-71
2024/01/01 11:14:38;;;;;;;0.77;0.77;;;8.00;99.90;;;;;;4375752;32;20130;-72
2024/01/01 11:17:06;;;;;;;0.45;0.45;;;8.10;99.90;;;;;;4373088;32;20100;-71
2024/01/01 11:19:46;;;;;;;0.60;0.60;;;8.10;99.90;;;;;;4372506;32;20150;-71
2024/01/01 11:22:30;;;;;;;2.17;1.12;;;8.20;99.90;;;;;;4375291;32;20070;-72
2024/01/01 11:24:59;;;;;;;0.40;0.40;;;8.10;99.90;;;;;;4373264;32;20188;-71
2024/01/01 11:27:27;;;;;;;1.20;1.10;;;8.10;99.90;;;;;;4372082;32;20095;-71
2024/01/01 11:29:53;;;;;;;0.30;0.30;;;8.10;99.90;;;;;;4372925;32;20775;-71
2024/01/01 11:32:19;;;;;;;0.85;0.52;;;8.10;99.90;;;;;;4375783;32;20576;-71
2024/01/01 11:35:05;;;;;;;0.30;0.30;;;8.10;99.90;;;;;;4373614;32;20464;-71
2024/01/01 11:37:30;;;;;;;0.37;0.37;;;8.10;99.90;;;;;;4373648;32;20448;-71
2024/01/01 11:39:58;;;;;;;0.45;0.45;;;8.00;99.90;;;;;;4372502;32;20086;-73
2024/01/01 11:42:24;;;;;;;0.73;0.73;;;8.10;99.90;;;;;;4370006;32;20095;-73
2024/01/01 11:44:49;;;;;;;0.32;0.32;;;8.10;99.90;;;;;;4375265;32;20071;-73
2024/01/01 11:47:18;;;;;;;1.20;1.00;;;8.10;99.90;;;;;;4371406;32;20079;-72
2024/01/01 11:49:43;;;;;;;0.50;0.50;;;8.10;99.90;;;;;;4372459;32;20083;-72
2024/01/01 11:52:11;;;;;;;0.68;0.68;;;8.10;99.90;;;;;;4370540;32;86534;-72
2024/01/01 11:54:37;;;;;;;0.77;0.52;;;8.10;99.90;;;;;;4375541;32;20102;-72
2024/01/01 11:57:03;;;;;;;0.95;0.90;;;8.10;99.90;;;;;;4375981;32;20070;-73
2024/01/01 11:59:29;;;;;;;0.37;0.37;;;8.20;99.90;;;;;;4376426;32;20459;-72
2024/01/01 12:01:56;;;;;;;0.55;0.55;;;8.20;99.90;;;;;;4375142;32;20063;-73
2024/01/01 12:04:22;;;;;;;0.65;0.65;;;8.30;99.90;;;;;;4375257;32;20455;-73
2024/01/01 12:06:51;;;;;;;0.50;0.50;;;8.30;99.90;;;;;;4377027;32;20129;-74
2024/01/01 12:09:18;;;;;;;0.40;0.40;;;8.30;99.90;;;;;;4375698;32;20074;-73
2024/01/01 12:11:44;;;;;;;0.45;0.45;;;8.40;99.90;;;;;;4376020;32;20133;-73
2024/01/01 12:14:09;;;;;;;0.30;0.30;;;8.40;99.90;;;;;;4374168;32;20819;-74
2024/01/01 12:16:37;;;;;;;1.10;0.60;;;8.40;99.90;;;;;;4371394;32;20071;-73
2024/01/01 12:19:04;;;;;;;0.30;0.30;;;8.50;99.90;;;;;;4377497;32;20137;-74
2024/01/01 12:21:41;;;;;;;0.60;0.60;;;8.50;99.90;;;;;;4372540;32;20073;-73
2024/01/01 12:24:09;;;;;;;0.43;0.43;;;8.50;99.90;;;;;;4378266;32;20051;-73
2024/01/01 12:26:35;;;;;;;0.40;0.40;;;8.50;99.90;;;;;;4375159;32;20453;-74
2024/01/01 12:29:10;;;;;;;0.82;0.82;;;8.50;99.90;;;;;;4373780;32;20527;-74
2024/01/01 12:31:36;;;;;;;0.30;0.30;;;8.50;99.90;;;;;;4374501;32;20440;-73
2024/01/01 12:34:03;;;;;;;0.40;0.40;;;8.50;99.90;;;;;;4374071;32;20483;-74
2024/01/01 12:36:28;;;;;;;0.40;0.40;;;8.60;99.90;;;;;;4374146;32;20134;-73
2024/01/01 12:38:53;;;;;;;0.30;0.30;;;8.60;99.90;;;;;;4375467;32;20214;-74
2024/01/01 12:41:20;;;;;;;0.35;0.35;;;8.60;99.90;;;;;;4375496;32;20090;-74
2024/01/01 12:43:46;;;;;;;0.28;0.28;;;8.60;99.90;;;;;;4375602;32;20067;-74
2024/01/01 12:46:13;;;;;;;0.40;0.40;;;8.50;99.90;;;;;;4374238;32;20090;-74
2024/01/01 12:48:44;;;;;;;0.40;0.40;;;8.50;99.90;;;;;;4377467;32;20503;-74
2024/01/01 12:51:09;;;;;;;0.37;0.37;;;8.50;99.90;;;;;;4376069;32;20099;-74
2024/01/01 12:53:34;;;;;;;2.90;0.82;;;8.50;99.90;;;;;;4373885;32;20137;-73
2024/01/01 12:56:00;;;;;;;0.43;0.43;;;8.40;99.90;;;;;;4374576;32;20099;-73